Time;durP1;ratioP1;P1;durP2;ratioP2;P2;SDS_P1;SDS_P2;PMS_P1;PMS_P2;Temp;Humidity;BMP_temperature;BMP_pressure;BME280_temperature;BME280_humidity;BME280_pressure;Samples;Min_cycle;Max_cycle;Signal;HPM_P1;HPM_P2
2022/08/03 00:00:54;;;;;;;8.63;7.57;;;;;;;24.25;53.83;101098.06;5060871;28;20450;-66
2022/08/03 00:03:20;;;;;;;11.30;9.00;;;;;;;24.30;54.44;101101.41;5060845;28;20185;-67
2022/08/03 00:05:45;;;;;;;8.33;7.63;;;;;;;24.20;54.38;101100.06;5061161;28;20193;-67
2022/08/03 00:08:11;;;;;;;8.60;7.27;;;;;;;24.04;54.95;101094.50;5061064;28;20173;-66
2022/08/03 00:10:37;;;;;;;9.00;8.10;;;;;;;23.84;55.69;101103.25;5060912;28;20219;-66
2022/08/03 00:13:02;;;;;;;8.53;7.73;;;;;;;24.16;54.47;101101.97;5061398;28;20176;-67
2022/08/03 00:15:28;;;;;;;8.27;7.50;;;;;;;23.81;55.69;101104.25;5060746;28;20210;-67
2022/08/03 00:17:53;;;;;;;8.20;7.40;;;;;;;23.99;55.19;101096.47;5060747;28;20260;-67
2022/08/03 00:20:18;;;;;;;11.33;8.20;;;;;;;24.28;54.29;101091.75;5061320;28;20165;-66
2022/08/03 00:22:44;;;;;;;9.57;7.53;;;;;;;23.97;55.08;101095.69;5059631;28;20523;-66
2022/08/03 00:25:09;;;;;;;9.17;8.37;;;;;;;24.32;54.49;101096.00;5060491;28;20201;-66
2022/08/03 00:27:34;;;;;;;9.30;8.10;;;;;;;24.17;54.67;101097.53;5061154;28;20195;-67
2022/08/03 00:30:00;;;;;;;8.67;7.67;;;;;;;23.93;55.26;101094.94;5060616;28;20585;-68
2022/08/03 00:32:25;;;;;;;7.97;7.20;;;;;;;24.05;54.97;101096.22;5060657;28;20219;-66
2022/08/03 00:34:50;;;;;;;7.73;7.13;;;;;;;24.04;55.27;101092.72;5060775;28;20192;-67
2022/08/03 00:37:16;;;;;;;9.10;8.30;;;;;;;23.92;55.49;101087.00;5060442;28;20161;-67
2022/08/03 00:39:44;;;;;;;8.87;8.07;;;;;;;23.87;55.03;101085.38;5060404;28;20250;-67
2022/08/03 00:42:10;;;;;;;10.50;8.40;;;;;;;24.01;54.94;101083.97;5060334;28;20435;-68
2022/08/03 00:44:42;;;;;;;10.43;8.33;;;;;;;23.57;56.46;101081.25;5061167;28;20408;-68
2022/08/03 00:47:09;;;;;;;11.90;8.50;;;;;;;23.73;55.93;101079.72;5060133;28;20169;-67
2022/08/03 00:49:35;;;;;;;9.20;8.40;;;;;;;23.49;56.66;101086.88;5059971;28;20679;-71
2022/08/03 00:52:01;;;;;;;10.57;7.90;;;;;;;23.23;57.17;101086.09;5060275;28;20412;-69
2022/08/03 00:54:26;;;;;;;8.63;7.83;;;;;;;23.67;55.60;101082.66;5059220;28;20545;-67
2022/08/03 00:56:52;;;;;;;9.03;8.13;;;;;;;23.30;56.31;101092.94;5059878;28;20166;-68
2022/08/03 00:59:17;;;;;;;9.00;8.20;;;;;;;23.48;56.08;101086.03;5060118;28;20170;-67
2022/08/03 01:01:43;;;;;;;9.00;8.10;;;;;;;23.32;56.55;101095.53;5059972;28;20491;-67
2022/08/03 01:04:08;;;;;;;9.17;8.30;;;;;;;23.62;55.96;101084.63;5060432;28;20220;-68
2022/08/03 01:06:39;;;;;;;12.50;8.10;;;;;;;23.27;56.78;101085.03;5059898;28;20489;-67
2022/08/03 01:09:30;;;;;;;8.97;8.17;;;;;;;23.21;57.00;101082.63;5059866;28;20161;-66
2022/08/03 01:11:55;;;;;;;8.77;8.07;;;;;;;23.18;57.21;101083.63;5059138;28;20428;-68
2022/08/03 01:14:33;;;;;;;8.20;7.60;;;;;;;23.29;56.77;101085.00;5059562;28;20683;-66
2022/08/03 01:17:10;;;;;;;9.33;8.40;;;;;;;22.72;58.71;101085.28;5059101;28;20169;-66
2022/08/03 01:19:38;;;;;;;9.03;8.23;;;;;;;22.88;57.72;101074.97;5059226;28;20423;-66
2022/08/03 01:22:26;;;;;;;9.50;8.70;;;;;;;22.67;58.57;101085.44;5059767;28;20411;-67
2022/08/03 01:25:16;;;;;;;9.37;8.10;;;;;;;22.73;58.88;101076.34;5058812;28;20463;-67
2022/08/03 01:27:47;;;;;;;9.07;8.37;;;;;;;23.04;57.80;101077.91;5058855;28;20424;-67
2022/08/03 01:30:12;;;;;;;9.87;8.47;;;;;;;22.96;58.38;101085.31;5059665;28;20408;-67
2022/08/03 01:32:53;;;;;;;9.13;8.43;;;;;;;22.64;59.40;101077.56;5059505;28;20831;-67
2022/08/03 01:35:44;;;;;;;9.10;8.30;;;;;;;22.73;58.42;101071.03;5058457;28;20437;-68
2022/08/03 01:38:12;;;;;;;8.17;7.50;;;;;;;22.73;59.13;101079.03;5059111;28;20519;-67
2022/08/03 01:40:39;;;;;;;8.63;8.03;;;;;;;22.91;58.51;101079.28;5058588;28;20436;-67
2022/08/03 01:43:05;;;;;;;8.60;8.00;;;;;;;23.14;57.68;101076.69;5059223;28;20412;-68
2022/08/03 01:45:31;;;;;;;9.23;8.20;;;;;;;22.67;58.81;101077.44;5058166;28;20525;-68
2022/08/03 01:47:57;;;;;;;9.43;8.20;;;;;;;22.90;58.77;101075.75;5058864;28;20427;-67
2022/08/03 01:50:26;;;;;;;8.77;8.00;;;;;;;22.82;58.21;101075.19;5058466;28;20427;-67
2022/08/03 01:52:52;;;;;;;8.83;8.03;;;;;;;22.90;58.11;101067.78;5058215;28;20468;-68
2022/08/03 01:55:19;;;;;;;8.80;8.10;;;;;;;22.73;58.36;101073.69;5058548;28;20420;-67
2022/08/03 01:57:45;;;;;;;9.87;8.87;;;;;;;22.60;59.35;101080.41;5058248;28;20518;-67
2022/08/03 02:00:11;;;;;;;9.57;8.70;;;;;;;22.67;59.06;101068.63;5058082;28;20416;-67
2022/08/03 02:02:37;;;;;;;10.13;9.07;;;;;;;22.45;59.83;101069.38;5058458;28;20416;-67
2022/08/03 02:05:05;;;;;;;9.30;8.50;;;;;;;22.62;59.07;101058.13;5057955;28;20458;-67
2022/08/03 02:07:32;;;;;;;9.57;8.77;;;;;;;22.83;58.72;101063.63;5058087;28;20197;-67
2022/08/03 02:09:57;;;;;;;9.13;8.33;;;;;;;22.59;59.15;101057.41;5059079;28;20404;-67
2022/08/03 02:12:25;;;;;;;9.77;8.90;;;;;;;22.64;59.22;101074.06;5058010;28;20816;-67
2022/08/03 02:14:50;;;;;;;9.00;8.30;;;;;;;22.71;58.57;101067.59;5058492;28;20170;-66
2022/08/03 02:17:17;;;;;;;9.13;8.33;;;;;;;22.33;60.60;101061.81;5058267;28;20419;-66
2022/08/03 02:19:43;;;;;;;11.77;8.67;;;;;;;22.66;59.67;101058.91;5057954;28;20170;-67
2022/08/03 02:22:10;;;;;;;9.93;9.10;;;;;;;22.47;59.93;101062.22;5041201;28;20423;-67
2022/08/03 02:24:35;;;;;;;13.57;8.10;;;;;;;22.48;60.17;101063.94;5057912;28;20162;-70
2022/08/03 02:27:05;;;;;;;12.03;9.20;;;;;;;22.52;59.91;101060.25;5057665;28;20427;-66
2022/08/03 02:29:33;;;;;;;9.50;8.70;;;;;;;23.00;58.39;101061.22;5058423;28;20193;-66
2022/08/03 02:31:59;;;;;;;9.70;8.80;;;;;;;22.85;58.30;101052.03;5058074;28;20412;-67
2022/08/03 02:34:26;;;;;;;10.50;9.60;;;;;;;22.78;59.08;101058.47;5057621;28;20408;-68
2022/08/03 02:36:52;;;;;;;10.10;9.30;;;;;;;22.49;59.94;101048.91;5058190;28;20404;-68
2022/08/03 02:39:19;;;;;;;9.83;9.03;;;;;;;22.31;60.39;101055.66;5057898;28;20740;-67
2022/08/03 02:41:50;;;;;;;10.10;9.30;;;;;;;22.34;60.42;101050.28;5057690;28;20416;-67
2022/08/03 02:44:17;;;;;;;10.17;9.27;;;;;;;22.28;60.61;101055.78;5058131;28;20466;-67
2022/08/03 02:46:44;;;;;;;9.30;8.50;;;;;;;22.43;60.56;101049.97;5057384;28;20451;-67
2022/08/03 02:49:12;;;;;;;10.40;9.50;;;;;;;22.30;60.44;101057.47;5057430;28;20424;-67
2022/08/03 02:51:38;;;;;;;11.97;8.90;;;;;;;22.73;59.58;101049.78;5057329;28;20433;-67
2022/08/03 02:54:05;;;;;;;10.60;9.80;;;;;;;22.57;60.12;101056.56;5057072;28;20491;-67
2022/08/03 02:56:31;;;;;;;11.30;10.40;;;;;;;22.34;60.95;101050.28;5058492;28;20758;-66
2022/08/03 02:58:57;;;;;;;10.60;9.70;;;;;;;22.03;62.16;101048.66;5060108;28;20491;-66
2022/08/03 03:01:24;;;;;;;10.67;9.70;;;;;;;22.56;60.57;101041.56;5057680;28;20212;-68
2022/08/03 03:03:51;;;;;;;10.90;9.90;;;;;;;22.47;61.02;101050.72;5057927;28;20404;-66
2022/08/03 03:06:17;;;;;;;10.93;9.90;;;;;;;22.53;61.16;101045.22;5058519;28;20865;-67
2022/08/03 03:08:42;;;;;;;10.77;9.77;;;;;;;22.62;60.80;101038.69;5057176;28;20454;-66
2022/08/03 03:11:09;;;;;;;10.90;10.00;;;;;;;22.76;60.27;101048.81;5057170;28;20415;-67
2022/08/03 03:13:35;;;;;;;10.60;9.67;;;;;;;22.66;60.77;101042.97;5057534;28;20416;-66
2022/08/03 03:16:03;;;;;;;10.30;9.27;;;;;;;22.67;60.70;101044.72;5057021;28;20812;-67
2022/08/03 03:18:30;;;;;;;11.30;10.30;;;;;;;22.37;61.69;101043.06;5057240;28;20419;-68
2022/08/03 03:20:57;;;;;;;10.63;9.73;;;;;;;22.26;62.13;101042.56;5057526;28;20404;-66
2022/08/03 03:23:24;;;;;;;11.40;10.50;;;;;;;22.15;62.61;101050.88;5056978;28;20491;-66
2022/08/03 03:25:50;;;;;;;11.30;10.30;;;;;;;22.46;61.74;101047.22;5056924;28;20462;-66
2022/08/03 03:28:15;;;;;;;11.23;10.33;;;;;;;22.61;61.18;101045.81;5058273;28;20511;-66
2022/08/03 03:30:41;;;;;;;10.77;9.97;;;;;;;22.36;61.88;101056.41;5057136;28;20572;-65
2022/08/03 03:33:07;;;;;;;10.53;9.67;;;;;;;22.78;60.42;101053.16;5057742;28;20527;-65
2022/08/03 03:35:33;;;;;;;11.03;10.03;;;;;;;22.42;61.01;101052.66;5057219;28;20158;-65
2022/08/03 03:37:59;;;;;;;10.90;9.80;;;;;;;22.67;61.04;101052.69;5057553;28;20193;-67
2022/08/03 03:40:24;;;;;;;10.67;9.83;;;;;;;23.00;59.45;101055.91;5056856;28;20526;-65
2022/08/03 03:42:50;;;;;;;11.00;10.00;;;;;;;22.76;60.35;101054.13;5057247;28;20161;-66
2022/08/03 03:45:15;;;;;;;11.97;10.70;;;;;;;22.43;61.16;101049.09;5056623;28;20251;-67
2022/08/03 03:47:41;;;;;;;11.20;10.30;;;;;;;22.18;61.77;101052.56;5057474;28;20201;-66
2022/08/03 03:50:06;;;;;;;16.23;11.90;;;;;;;22.26;63.07;101052.28;5057906;28;20188;-67
2022/08/03 03:52:33;;;;;;;11.40;10.50;;;;;;;22.37;62.64;101056.34;5057229;28;20161;-68
2022/08/03 03:54:58;;;;;;;11.53;10.60;;;;;;;22.78;60.81;101052.28;5057397;28;20260;-66
2022/08/03 03:57:24;;;;;;;11.40;10.40;;;;;;;22.87;59.81;101042.19;5059234;28;20415;-69
2022/08/03 03:59:50;;;;;;;11.40;10.40;;;;;;;23.13;58.89;101045.69;5061335;28;20170;-68
2022/08/03 04:02:15;;;;;;;12.43;10.70;;;;;;;22.93;59.22;101053.50;5061111;28;20416;-67
2022/08/03 04:12:58;;;;;;;11.17;10.20;;;;;;;22.21;61.50;101052.47;5060635;28;20415;-67
2022/08/03 04:15:24;;;;;;;11.23;10.10;;;;;;;22.42;61.21;101050.91;5060167;28;20416;-68
2022/08/03 04:17:51;;;;;;;10.93;10.07;;;;;;;22.40;61.18;101050.06;5060864;28;20422;-67
2022/08/03 04:20:19;;;;;;;11.50;10.27;;;;;;;22.87;59.46;101051.97;5060312;28;20404;-67
2022/08/03 04:22:47;;;;;;;11.83;10.27;;;;;;;23.71;57.42;101041.66;5060560;28;20405;-67
2022/08/03 04:25:16;;;;;;;10.33;9.43;;;;;;;24.80;53.76;101040.66;5039713;28;20567;-68
2022/08/03 04:27:42;;;;;;;9.37;8.67;;;;;;;25.59;51.61;101045.00;5058893;28;20813;-68
2022/08/03 04:30:10;;;;;;;9.20;8.50;;;;;;;25.64;51.16;101046.53;5060022;28;20502;-68
2022/08/03 04:32:37;;;;;;;14.70;10.10;;;;;;;26.33;49.48;101038.66;5059628;28;20535;-68
2022/08/03 04:35:04;;;;;;;9.97;9.27;;;;;;;26.65;48.63;101036.13;5060234;28;20818;-68
2022/08/03 04:37:38;;;;;;;9.20;8.30;;;;;;;26.77;48.31;101032.81;5059385;28;20440;-66
2022/08/03 04:40:06;;;;;;;9.37;8.50;;;;;;;26.71;47.89;101042.03;5056328;28;20496;-67
2022/08/03 04:42:32;;;;;;;9.40;8.43;;;;;;;26.89;47.65;101036.66;5055908;28;20525;-67
2022/08/03 04:44:58;;;;;;;8.93;8.23;;;;;;;26.58;48.59;101035.59;5057853;28;20466;-68
2022/08/03 04:47:24;;;;;;;9.27;8.10;;;;;;;28.13;44.93;101027.91;5059023;28;20697;-68
2022/08/03 04:49:50;;;;;;;9.50;7.40;;;;;;;28.19;45.05;101032.88;5059455;28;20559;-69
2022/08/03 04:52:15;;;;;;;9.20;8.27;;;;;;;27.46;46.67;101040.69;5059563;28;20536;-67
2022/08/03 04:54:42;;;;;;;8.80;8.10;;;;;;;28.22;44.73;101037.19;5058936;28;20598;-69
2022/08/03 04:57:10;;;;;;;8.87;7.80;;;;;;;28.21;44.37;101044.38;5060116;28;20166;-67
2022/08/03 04:59:36;;;;;;;8.30;7.57;;;;;;;27.98;45.31;101050.19;5059608;28;20669;-67
2022/08/03 05:02:01;;;;;;;8.30;7.70;;;;;;;28.29;44.85;101037.69;5059949;28;20806;-67
2022/08/03 05:04:26;;;;;;;7.70;7.10;;;;;;;29.21;42.88;101048.09;5060061;28;20415;-68
2022/08/03 05:06:52;;;;;;;7.60;6.90;;;;;;;28.99;42.41;101048.59;5059708;28;20309;-67
2022/08/03 05:09:17;;;;;;;8.20;7.50;;;;;;;29.26;43.17;101047.81;5059194;28;20180;-67
2022/08/03 05:11:42;;;;;;;8.60;7.80;;;;;;;29.45;41.76;101039.44;5060008;28;20177;-67
2022/08/03 05:14:08;;;;;;;8.23;7.43;;;;;;;30.27;40.49;101046.56;5059521;28;20432;-67
2022/08/03 05:16:33;;;;;;;7.67;7.07;;;;;;;29.85;40.76;101052.03;5059281;28;20219;-67
2022/08/03 05:18:59;;;;;;;8.37;7.47;;;;;;;28.67;43.67;101042.56;5059668;28;20166;-67
2022/08/03 05:21:25;;;;;;;8.27;7.47;;;;;;;29.66;41.45;101052.41;5059579;28;20173;-67
2022/08/03 05:23:50;;;;;;;8.20;7.40;;;;;;;29.65;41.04;101043.50;5059400;28;20204;-67
2022/08/03 05:26:16;;;;;;;8.50;7.80;;;;;;;30.05;40.40;101043.53;5059513;28;20268;-67
2022/08/03 05:28:41;;;;;;;8.43;7.63;;;;;;;30.03;40.36;101053.53;5059362;28;20174;-70
2022/08/03 05:31:07;;;;;;;7.90;7.20;;;;;;;30.68;38.94;101043.72;5059482;28;20162;-70
2022/08/03 05:33:32;;;;;;;8.70;7.40;;;;;;;30.81;38.31;101045.53;5059314;28;20535;-70
2022/08/03 05:35:58;;;;;;;7.60;7.00;;;;;;;31.06;37.23;101045.53;5059127;28;20177;-67
2022/08/03 05:38:24;;;;;;;10.13;7.10;;;;;;;30.34;39.00;101043.38;5059246;28;20486;-69
2022/08/03 05:40:50;;;;;;;7.00;6.40;;;;;;;30.37;39.33;101048.53;5059216;28;20428;-70
2022/08/03 05:43:16;;;;;;;7.20;6.57;;;;;;;31.69;36.65;101042.78;5059073;28;20481;-70
2022/08/03 05:45:42;;;;;;;7.57;6.80;;;;;;;31.82;36.41;101041.84;5058886;28;20202;-69
2022/08/03 05:48:07;;;;;;;7.67;7.07;;;;;;;31.76;36.82;101045.00;5059316;28;20162;-68
2022/08/03 05:50:34;;;;;;;7.23;6.43;;;;;;;31.40;37.18;101045.75;5058528;28;20431;-67
2022/08/03 05:53:00;;;;;;;6.90;6.30;;;;;;;31.98;35.49;101046.94;5058739;28;20223;-68
2022/08/03 05:55:25;;;;;;;9.57;6.70;;;;;;;31.54;36.50;101042.06;5058926;28;20801;-68
2022/08/03 05:57:51;;;;;;;7.27;6.67;;;;;;;32.89;34.04;101032.66;5058981;28;20169;-67
2022/08/03 06:00:17;;;;;;;8.17;6.17;;;;;;;33.38;33.07;101038.63;5058931;28;20180;-68
2022/08/03 06:02:42;;;;;;;12.43;6.47;;;;;;;32.68;34.43;101028.97;5059129;28;20176;-67
2022/08/03 06:05:08;;;;;;;10.93;6.60;;;;;;;33.12;33.58;101027.22;5058605;28;20498;-67
2022/08/03 06:07:34;;;;;;;11.77;6.80;;;;;;;33.51;33.15;101032.22;5058422;28;20209;-67
2022/08/03 06:10:01;;;;;;;8.67;6.20;;;;;;;33.94;31.88;101036.75;5058817;28;20169;-68
2022/08/03 06:12:26;;;;;;;7.23;5.60;;;;;;;33.24;32.81;101034.34;5058545;28;20173;-71
2022/08/03 06:14:52;;;;;;;9.80;5.53;;;;;;;34.91;30.37;101028.34;5058471;28;20410;-71
2022/08/03 06:17:17;;;;;;;6.70;5.47;;;;;;;35.13;30.17;101029.13;5058892;28;20254;-68
2022/08/03 06:19:43;;;;;;;6.33;5.80;;;;;;;34.77;30.61;101030.56;5058460;28;20543;-68
2022/08/03 06:22:08;;;;;;;11.10;5.80;;;;;;;33.83;32.37;101034.94;5057334;28;20546;-70
2022/08/03 06:24:33;;;;;;;12.47;6.80;;;;;;;33.53;33.30;101035.63;5058223;28;20594;-69
2022/08/03 06:26:59;;;;;;;6.13;5.53;;;;;;;35.64;29.24;101029.09;5058214;28;20173;-68
2022/08/03 06:29:24;;;;;;;7.53;5.20;;;;;;;35.57;29.21;101028.78;5058240;28;20179;-70
2022/08/03 06:31:49;;;;;;;8.27;5.17;;;;;;;34.27;31.66;101033.97;5058611;28;20214;-70
2022/08/03 06:34:15;;;;;;;7.77;5.43;;;;;;;34.25;32.38;101034.09;5058161;28;20182;-70
2022/08/03 06:36:40;;;;;;;9.10;6.70;;;;;;;35.26;31.03;101034.28;5058046;28;20177;-69
2022/08/03 06:39:06;;;;;;;10.20;6.57;;;;;;;33.21;33.25;101039.13;5058133;28;20193;-68
2022/08/03 06:41:31;;;;;;;7.17;6.57;;;;;;;34.50;32.18;101043.66;5057982;28;20489;-68
2022/08/03 06:43:57;;;;;;;8.77;6.23;;;;;;;35.78;30.18;101039.53;5057946;28;20279;-68
2022/08/03 06:46:22;;;;;;;7.73;5.73;;;;;;;35.82;30.03;101040.06;5058261;28;20276;-68
2022/08/03 06:48:48;;;;;;;10.10;6.27;;;;;;;35.19;30.67;101042.13;5058255;28;20183;-68
2022/08/03 06:51:13;;;;;;;7.70;5.73;;;;;;;33.97;32.10;101038.31;5057895;28;20173;-68
2022/08/03 06:53:39;;;;;;;8.70;5.43;;;;;;;35.63;30.22;101038.22;5058674;28;20243;-67
2022/08/03 06:56:05;;;;;;;10.93;6.20;;;;;;;35.99;29.41;101038.53;5057682;28;20174;-68
2022/08/03 06:58:30;;;;;;;6.53;5.93;;;;;;;36.31;29.33;101038.19;5057904;28;20208;-69
2022/08/03 07:00:56;;;;;;;7.00;5.40;;;;;;;34.68;31.19;101040.34;5057742;28;20447;-67
2022/08/03 07:03:21;;;;;;;9.33;5.50;;;;;;;34.77;30.63;101053.06;5057745;28;20169;-68
2022/08/03 07:05:46;;;;;;;8.57;5.50;;;;;;;36.48;28.62;101044.75;5057716;28;20272;-69
2022/08/03 07:08:12;;;;;;;10.07;5.50;;;;;;;34.47;31.55;101051.22;5057811;28;20169;-68
2022/08/03 07:10:38;;;;;;;8.80;5.13;;;;;;;33.81;32.26;101060.41;5057581;28;20223;-68
2022/08/03 07:13:04;;;;;;;6.77;5.03;;;;;;;35.89;29.37;101052.13;5057615;28;20632;-68
2022/08/03 07:15:29;;;;;;;5.90;4.83;;;;;;;35.66;29.78;101059.66;5056905;28;20169;-69
2022/08/03 07:17:55;;;;;;;6.93;4.57;;;;;;;34.38;31.70;101056.44;5057539;28;20589;-69
2022/08/03 07:20:21;;;;;;;8.17;4.83;;;;;;;35.92;29.44;101055.38;5057777;28;20575;-69
2022/08/03 07:22:46;;;;;;;8.50;4.87;;;;;;;36.87;28.56;101055.50;5056746;28;20172;-69
2022/08/03 07:25:12;;;;;;;6.00;4.67;;;;;;;36.99;27.33;101053.44;5057278;28;20243;-69
2022/08/03 07:27:37;;;;;;;10.10;4.30;;;;;;;35.39;29.78;101055.75;5057821;28;20164;-69
2022/08/03 07:30:06;;;;;;;4.87;3.70;;;;;;;35.01;29.37;101057.34;5057377;28;20503;-70
2022/08/03 07:32:31;;;;;;;5.93;3.83;;;;;;;34.34;30.52;101063.13;5059171;28;20260;-70
2022/08/03 07:34:57;;;;;;;4.33;3.40;;;;;;;35.13;29.70;101068.91;5061577;28;20493;-69
2022/08/03 07:37:22;;;;;;;4.70;3.40;;;;;;;35.23;29.12;101065.22;5061398;28;20169;-68
2022/08/03 07:39:47;;;;;;;5.27;4.30;;;;;;;35.97;28.55;101062.25;5061262;28;20517;-69
2022/08/03 07:42:13;;;;;;;3.80;3.50;;;;;;;35.62;28.62;101067.19;5061617;28;20211;-68
2022/08/03 07:44:39;;;;;;;5.60;3.90;;;;;;;37.03;26.83;101057.56;5061082;28;20170;-67
2022/08/03 07:47:05;;;;;;;4.40;3.90;;;;;;;37.24;26.60;101054.59;5061003;28;20164;-67
2022/08/03 07:49:30;;;;;;;5.63;4.00;;;;;;;36.89;27.05;101055.34;5061598;28;20427;-66
2022/08/03 07:54:39;;;;;;;4.57;4.03;;;;;;;34.89;30.00;101064.69;5060713;28;20271;-68
2022/08/03 07:57:05;;;;;;;5.23;3.90;;;;;;;34.69;29.98;101066.44;5060903;28;20423;-67
2022/08/03 07:59:30;;;;;;;5.30;4.10;;;;;;;34.67;30.11;101068.44;5061028;28;20174;-68
2022/08/03 08:01:55;;;;;;;4.90;4.30;;;;;;;35.69;28.72;101059.34;5061401;28;20169;-67
2022/08/03 08:04:21;;;;;;;7.87;4.67;;;;;;;35.90;28.38;101057.38;5060661;28;20169;-68
2022/08/03 08:06:47;;;;;;;4.07;3.70;;;;;;;36.37;27.85;101066.63;5060048;28;20201;-68
2022/08/03 08:09:12;;;;;;;5.07;4.20;;;;;;;36.50;27.78;101058.19;5061196;28;20170;-68
2022/08/03 08:11:37;;;;;;;5.20;4.20;;;;;;;35.08;29.47;101061.19;5060842;28;20543;-68
2022/08/03 08:14:04;;;;;;;4.57;4.13;;;;;;;36.48;27.98;101058.34;5060700;28;20427;-68
2022/08/03 08:16:29;;;;;;;4.60;3.90;;;;;;;35.51;29.18;101051.91;5061227;28;20153;-68
2022/08/03 08:18:55;;;;;;;4.93;4.43;;;;;;;36.10;28.44;101051.09;5060837;28;20411;-68
2022/08/03 08:21:20;;;;;;;7.07;4.03;;;;;;;35.13;30.07;101058.94;5060500;28;20219;-68
2022/08/03 08:23:45;;;;;;;4.97;4.00;;;;;;;35.43;29.31;101059.91;5060877;28;20247;-68
2022/08/03 08:26:11;;;;;;;7.63;4.03;;;;;;;34.52;30.98;101059.78;5060527;28;20201;-67
2022/08/03 08:28:36;;;;;;;7.43;4.20;;;;;;;34.99;29.74;101053.91;5060596;28;20231;-67
2022/08/03 08:31:02;;;;;;;4.20;3.63;;;;;;;35.43;29.11;101059.91;5060781;28;20173;-68
2022/08/03 08:33:27;;;;;;;5.60;3.70;;;;;;;36.27;28.39;101049.50;5061043;28;20169;-68
2022/08/03 08:35:52;;;;;;;6.60;3.77;;;;;;;36.70;27.83;101048.97;5060443;28;20523;-68
2022/08/03 08:38:18;;;;;;;4.23;3.80;;;;;;;36.19;28.30;101056.50;5060404;28;20216;-68
2022/08/03 08:40:44;;;;;;;5.10;3.87;;;;;;;36.37;27.91;101045.78;5060604;28;20185;-69
2022/08/03 08:43:09;;;;;;;4.57;4.17;;;;;;;36.35;28.35;101055.09;5059636;28;20170;-70
2022/08/03 08:45:35;;;;;;;5.67;4.30;;;;;;;36.46;28.51;101062.19;5059528;28;20197;-69
2022/08/03 08:48:01;;;;;;;4.40;3.80;;;;;;;35.77;29.23;101059.50;5059789;28;20205;-70
2022/08/03 08:50:27;;;;;;;4.57;3.50;;;;;;;35.50;29.55;101068.31;5059917;28;20547;-69
2022/08/03 08:52:53;;;;;;;6.63;4.20;;;;;;;36.33;28.78;101066.09;5060058;28;20478;-69
2022/08/03 08:55:21;;;;;;;4.67;4.30;;;;;;;35.92;29.30;101058.09;5060825;28;20172;-70
2022/08/03 08:57:58;;;;;;;6.30;4.30;;;;;;;35.19;30.32;101069.22;5059886;28;20166;-69
2022/08/03 09:00:23;;;;;;;4.33;3.83;;;;;;;35.55;30.01;101060.63;5060538;28;20858;-69
2022/08/03 09:02:49;;;;;;;4.97;3.90;;;;;;;34.86;31.09;101076.66;5059922;28;20491;-69
2022/08/03 09:05:16;;;;;;;5.00;4.00;;;;;;;35.91;30.29;101067.25;5059684;28;20571;-70
2022/08/03 09:07:43;;;;;;;5.20;3.67;;;;;;;35.14;31.07;101063.38;5059770;28;20169;-70
2022/08/03 09:10:10;;;;;;;5.03;4.07;;;;;;;35.35;29.90;101066.00;5060081;28;20432;-70
2022/08/03 09:12:43;;;;;;;3.80;3.50;;;;;;;36.10;29.53;101064.66;5059560;28;20412;-69
2022/08/03 09:15:19;;;;;;;5.80;3.90;;;;;;;35.33;31.41;101064.44;5059667;28;20537;-69
2022/08/03 09:17:44;;;;;;;4.60;3.83;;;;;;;35.87;29.88;101054.97;5058932;28;20422;-70
2022/08/03 09:20:10;;;;;;;6.33;3.87;;;;;;;35.50;30.31;101062.91;5059541;28;20404;-72
2022/08/03 09:22:50;;;;;;;4.47;3.60;;;;;;;35.56;30.41;101055.06;5059943;28;20170;-69
2022/08/03 09:25:16;;;;;;;4.40;3.67;;;;;;;36.64;29.23;101054.13;5059280;28;20204;-68
2022/08/03 09:27:45;;;;;;;8.13;3.30;;;;;;;36.09;30.06;101052.97;5059188;28;20845;-69
2022/08/03 09:30:16;;;;;;;9.53;3.60;;;;;;;36.11;29.67;101061.78;5059329;28;20165;-68
2022/08/03 09:32:43;;;;;;;6.13;3.40;;;;;;;35.39;30.95;101066.59;5058334;28;20701;-70
2022/08/03 09:35:10;;;;;;;5.53;3.10;;;;;;;34.98;31.30;101060.31;5060249;28;20675;-70
2022/08/03 09:37:35;;;;;;;4.30;2.93;;;;;;;36.34;29.02;101054.22;5059317;28;20440;-68
2022/08/03 09:40:01;;;;;;;4.27;3.87;;;;;;;37.05;28.60;101047.41;5059548;28;20442;-69
2022/08/03 09:42:26;;;;;;;4.30;3.37;;;;;;;36.38;29.25;101054.78;5059108;28;20165;-69
2022/08/03 09:44:52;;;;;;;3.97;3.57;;;;;;;36.94;28.88;101054.88;5058617;28;20590;-68
2022/08/03 09:47:28;;;;;;;3.50;3.20;;;;;;;37.35;27.90;101050.81;5059458;28;20173;-68
2022/08/03 09:50:09;;;;;;;4.13;2.90;;;;;;;36.57;28.63;101048.44;5059211;28;20168;-69
2022/08/03 09:52:37;;;;;;;9.40;3.97;;;;;;;36.45;29.53;101053.19;5058811;28;20820;-70
2022/08/03 09:55:10;;;;;;;3.60;3.17;;;;;;;35.52;30.43;101050.06;5058748;28;20419;-69
2022/08/03 09:57:36;;;;;;;5.40;3.20;;;;;;;36.46;29.79;101056.78;5059083;28;20415;-69
2022/08/03 10:00:10;;;;;;;3.33;3.03;;;;;;;35.56;30.20;101057.78;5058209;28;20514;-69
2022/08/03 10:02:36;;;;;;;4.80;3.13;;;;;;;36.80;28.84;101058.94;5058489;28;20235;-70
2022/08/03 10:05:03;;;;;;;4.77;2.97;;;;;;;36.65;29.29;101051.25;5058710;28;20550;-70
2022/08/03 10:07:28;;;;;;;3.50;3.03;;;;;;;36.55;28.63;101048.59;5058795;28;20185;-70
2022/08/03 10:09:56;;;;;;;4.80;3.40;;;;;;;35.89;30.10;101061.09;5058824;28;20757;-70
2022/08/03 10:12:22;;;;;;;6.70;3.27;;;;;;;36.87;28.90;101055.50;5058624;28;20165;-70
2022/08/03 10:14:47;;;;;;;6.05;3.40;;;;;;;36.74;28.58;101049.53;5057800;28;20659;-68
2022/08/03 10:17:13;;;;;;;4.13;3.27;;;;;;;36.30;29.59;101050.03;5058847;28;20610;-68
2022/08/03 10:19:39;;;;;;;5.47;3.40;;;;;;;35.50;30.39;101055.63;5058188;28;20176;-68
2022/08/03 10:22:18;;;;;;;4.73;2.90;;;;;;;36.54;29.02;101043.31;5058377;28;20428;-70
2022/08/03 10:24:59;;;;;;;9.20;3.50;;;;;;;36.13;29.73;101043.53;5057565;28;20494;-70
2022/08/03 10:27:30;;;;;;;3.37;2.90;;;;;;;36.28;29.60;101040.31;5058322;28;20457;-70
2022/08/03 10:30:00;;;;;;;4.27;3.10;;;;;;;37.16;28.46;101030.03;5057516;28;20415;-67
2022/08/03 10:32:40;;;;;;;10.93;3.50;;;;;;;37.24;28.19;101043.72;5057445;28;20423;-67
2022/08/03 10:35:13;;;;;;;7.37;3.00;;;;;;;36.97;28.48;101039.16;5057943;28;20470;-66
2022/08/03 10:37:44;;;;;;;8.13;2.97;;;;;;;36.47;29.33;101040.31;5058445;28;20682;-66
2022/08/03 10:40:13;;;;;;;4.90;3.10;;;;;;;36.13;29.74;101029.94;5057414;28;20435;-67
2022/08/03 10:42:40;;;;;;;3.77;2.77;;;;;;;35.99;30.65;101028.53;5057303;28;20424;-67
2022/08/03 10:45:25;;;;;;;5.30;3.30;;;;;;;36.36;29.79;101025.06;5057147;28;20448;-69
2022/08/03 10:47:52;;;;;;;6.90;3.23;;;;;;;36.41;29.42;101030.03;5058135;28;20419;-69
2022/08/03 10:50:18;;;;;;;6.07;3.70;;;;;;;37.14;28.62;101034.75;5058054;28;20701;-69
2022/08/03 10:52:57;;;;;;;3.43;3.13;;;;;;;36.50;29.45;101023.72;5057644;28;20477;-68
2022/08/03 10:58:35;;;;;;;3.40;3.10;;;;;;;35.85;30.03;101027.13;5058409;28;20488;-69
2022/08/03 11:01:02;;;;;;;5.27;3.30;;;;;;;35.70;29.97;101034.78;5057889;28;20821;-67
2022/08/03 11:03:27;;;;;;;4.50;3.07;;;;;;;35.15;30.63;101034.41;5058031;28;20408;-66
2022/08/03 11:05:55;;;;;;;4.40;3.20;;;;;;;35.97;29.84;101024.28;5057683;28;20728;-67
2022/08/03 11:08:33;;;;;;;5.17;3.10;;;;;;;35.47;30.36;101042.34;5057379;28;20181;-66
2022/08/03 11:11:27;;;;;;;3.90;3.17;;;;;;;35.34;30.85;101033.63;5057579;28;20415;-67
2022/08/03 11:14:14;;;;;;;4.90;3.40;;;;;;;35.16;31.59;101034.28;5057340;28;20416;-67
2022/08/03 11:16:46;;;;;;;4.47;3.20;;;;;;;35.82;29.71;101024.66;5057779;28;20436;-69
2022/08/03 11:19:18;;;;;;;6.83;3.40;;;;;;;35.26;30.54;101034.28;5057705;28;20408;-68
2022/08/03 11:21:47;;;;;;;6.37;3.23;;;;;;;34.98;31.01;101034.09;5057607;28;20443;-67
2022/08/03 11:24:35;;;;;;;4.70;3.13;;;;;;;35.91;29.66;101026.56;5057577;28;20422;-68
2022/08/03 11:27:20;;;;;;;5.13;3.40;;;;;;;36.70;28.78;101015.53;5057086;28;20483;-68
2022/08/03 11:30:03;;;;;;;4.90;3.30;;;;;;;35.84;29.46;101019.13;5057628;28;20447;-67
2022/08/03 11:32:43;;;;;;;3.80;2.90;;;;;;;35.74;29.83;101019.09;5057494;28;20416;-69
2022/08/03 11:35:11;;;;;;;4.83;3.13;;;;;;;35.85;30.25;101018.97;5057307;28;20418;-68
2022/08/03 11:37:55;;;;;;;4.20;2.90;;;;;;;36.20;29.71;101008.50;5057437;28;20477;-67